Time;durP1;ratioP1;P1;durP2;ratioP2;P2;SDS_P1;SDS_P2;PMS_P1;PMS_P2;Temp;Humidity;BMP_temperature;BMP_pressure;BME280_temperature;BME280_humidity;BME280_pressure;Samples;Min_cycle;Max_cycle;Signal;HPM_P1;HPM_P2
2022/05/06 00:00:00;;;;;;;20.38;14.90;;;27.80;97.30;;;;;;4152559;28;20065;-68
2022/05/06 00:02:09;;;;;;;19.80;15.45;;;27.80;97.20;;;;;;4152331;28;20042;-68
2022/05/06 00:04:14;;;;;;;21.05;14.73;;;27.80;97.30;;;;;;4152157;28;20053;-68
2022/05/06 00:06:18;;;;;;;17.67;15.43;;;27.80;97.30;;;;;;4151272;28;20054;-69
2022/05/06 00:08:28;;;;;;;18.98;15.05;;;27.80;97.30;;;;;;4152334;28;20046;-68
2022/05/06 00:10:32;;;;;;;19.88;15.52;;;27.80;97.40;;;;;;4151170;28;20042;-69
2022/05/06 00:12:37;;;;;;;19.55;15.15;;;27.80;97.30;;;;;;4150958;28;20066;-69
2022/05/06 00:14:44;;;;;;;17.27;14.02;;;27.90;97.30;;;;;;4151297;28;20041;-69
2022/05/06 00:17:06;;;;;;;19.45;14.77;;;27.90;97.20;;;;;;4152405;28;20159;-68
2022/05/06 00:19:11;;;;;;;17.50;13.95;;;27.90;97.40;;;;;;4152768;28;20053;-67
2022/05/06 00:21:18;;;;;;;18.73;14.70;;;27.90;97.20;;;;;;4155473;28;20413;-69
2022/05/06 00:23:23;;;;;;;20.63;14.98;;;27.90;97.10;;;;;;4153845;28;20045;-68
2022/05/06 00:25:28;;;;;;;15.60;13.85;;;27.90;97.10;;;;;;4151800;28;20583;-68
2022/05/06 00:27:34;;;;;;;19.92;15.05;;;27.90;97.10;;;;;;4153044;28;20408;-68
2022/05/06 00:29:39;;;;;;;18.38;14.68;;;27.90;97.20;;;;;;4153668;28;20069;-67
2022/05/06 00:31:44;;;;;;;18.23;14.45;;;27.90;97.10;;;;;;4153001;28;20046;-68
2022/05/06 00:33:52;;;;;;;17.98;13.80;;;27.90;97.00;;;;;;4149361;28;20076;-69
2022/05/06 00:35:58;;;;;;;15.60;12.82;;;28.00;96.90;;;;;;4148864;28;20049;-68
2022/05/06 00:38:03;;;;;;;16.05;13.45;;;28.00;96.90;;;;;;4148384;28;20582;-67
2022/05/06 00:40:13;;;;;;;19.92;13.80;;;28.10;96.60;;;;;;4154255;28;20050;-69
2022/05/06 00:42:21;;;;;;;16.42;13.63;;;28.10;96.50;;;;;;4150802;28;20042;-69
2022/05/06 00:44:27;;;;;;;18.55;13.80;;;28.10;96.40;;;;;;4149263;28;20049;-69
2022/05/06 00:46:39;;;;;;;17.88;14.40;;;28.10;96.30;;;;;;4150860;28;20046;-69
2022/05/06 00:48:46;;;;;;;16.10;14.32;;;28.10;96.40;;;;;;4150395;28;20037;-69
2022/05/06 00:50:53;;;;;;;20.05;15.27;;;28.20;96.40;;;;;;4134154;28;20046;-68
2022/05/06 00:53:07;;;;;;;17.65;14.95;;;28.20;96.40;;;;;;4150938;28;20058;-70
2022/05/06 00:55:12;;;;;;;17.63;14.68;;;28.20;96.40;;;;;;4150501;28;20064;-70
2022/05/06 00:57:18;;;;;;;18.50;13.25;;;28.20;96.40;;;;;;4148127;28;20508;-70
2022/05/06 00:59:27;;;;;;;15.57;13.27;;;28.20;96.40;;;;;;4148766;28;20077;-70
2022/05/06 01:01:34;;;;;;;17.17;12.57;;;28.20;96.30;;;;;;4150935;28;20053;-69
2022/05/06 01:03:42;;;;;;;15.95;13.18;;;28.30;96.30;;;;;;4150972;28;20107;-71
2022/05/06 01:05:52;;;;;;;16.40;11.82;;;28.20;96.20;;;;;;4146753;28;20078;-69
2022/05/06 01:07:59;;;;;;;15.70;12.48;;;28.20;96.10;;;;;;4146520;28;20098;-69
2022/05/06 01:10:05;;;;;;;17.80;13.73;;;28.20;96.10;;;;;;4147025;28;20069;-68
2022/05/06 01:12:10;;;;;;;17.65;13.90;;;28.10;96.20;;;;;;4149717;28;20053;-69
2022/05/06 01:14:32;;;;;;;16.23;14.27;;;28.10;96.30;;;;;;4149349;28;20165;-69
2022/05/06 01:16:49;;;;;;;17.93;13.83;;;28.10;96.40;;;;;;4150553;28;20101;-69
2022/05/06 01:18:56;;;;;;;16.05;13.25;;;28.10;96.50;;;;;;4146337;28;20050;-69
2022/05/06 01:21:02;;;;;;;17.08;13.00;;;28.10;96.30;;;;;;4147747;28;20072;-69
2022/05/06 01:23:07;;;;;;;15.82;12.93;;;28.20;96.30;;;;;;4132647;28;20057;-69
2022/05/06 01:25:18;;;;;;;16.73;12.80;;;28.20;96.30;;;;;;4149657;28;20046;-69
2022/05/06 01:27:28;;;;;;;18.35;14.00;;;28.30;96.30;;;;;;4151799;28;20064;-68
2022/05/06 01:29:33;;;;;;;16.80;13.05;;;28.30;96.20;;;;;;4150613;28;20045;-69
2022/05/06 01:31:40;;;;;;;15.85;13.18;;;28.30;96.30;;;;;;4116513;28;20051;-70
2022/05/06 01:33:45;;;;;;;16.38;13.43;;;28.40;96.00;;;;;;4148558;28;20077;-68
2022/05/06 01:35:52;;;;;;;15.60;12.77;;;28.50;95.90;;;;;;4148362;28;20041;-69
2022/05/06 01:38:05;;;;;;;15.98;12.43;;;28.50;95.90;;;;;;4149925;28;20046;-69
2022/05/06 01:40:12;;;;;;;15.05;12.80;;;28.60;95.60;;;;;;4149806;28;20038;-69
2022/05/06 01:42:24;;;;;;;17.88;12.63;;;28.60;95.60;;;;;;4150005;28;20076;-69
2022/05/06 01:44:40;;;;;;;16.15;13.82;;;28.60;95.50;;;;;;4149484;28;20038;-69
2022/05/06 01:46:48;;;;;;;36.88;14.13;;;28.60;95.60;;;;;;4148798;28;20042;-67
2022/05/06 01:48:59;;;;;;;23.38;14.23;;;28.60;95.80;;;;;;4148842;28;20042;-67
2022/05/06 01:51:13;;;;;;;21.17;12.82;;;28.60;95.40;;;;;;4162445;28;20048;-68
2022/05/06 01:53:19;;;;;;;17.48;13.73;;;28.60;95.40;;;;;;4145841;28;20054;-67
2022/05/06 01:55:27;;;;;;;17.77;12.75;;;28.60;95.20;;;;;;4147161;28;20046;-69
2022/05/06 01:57:43;;;;;;;18.60;13.30;;;28.60;95.20;;;;;;4131797;28;20085;-68
2022/05/06 01:59:48;;;;;;;17.50;13.18;;;28.60;95.20;;;;;;4161871;28;20091;-68
2022/05/06 02:01:56;;;;;;;18.85;14.38;;;28.50;95.30;;;;;;4131192;28;20281;-69
2022/05/06 02:06:28;;;;;;;21.77;13.52;;;28.60;95.30;;;;;;4145181;28;20066;-68
2022/05/06 02:08:44;;;;;;;29.70;13.95;;;28.60;95.20;;;;;;4147865;28;20075;-69
2022/05/06 02:10:56;;;;;;;28.95;14.82;;;28.60;95.20;;;;;;4147224;28;20050;-68
2022/05/06 02:13:01;;;;;;;23.55;15.10;;;28.60;95.30;;;;;;4147326;28;20058;-70
2022/05/06 02:15:19;;;;;;;29.85;15.07;;;28.60;95.40;;;;;;4146552;28;20057;-69
2022/05/06 02:17:41;;;;;;;22.35;14.32;;;28.60;95.50;;;;;;4147756;28;20052;-69
2022/05/06 02:19:59;;;;;;;24.38;13.95;;;28.60;95.50;;;;;;4147098;28;20034;-68
2022/05/06 02:22:23;;;;;;;20.37;13.23;;;28.60;95.70;;;;;;4147764;28;20400;-69
2022/05/06 02:24:42;;;;;;;15.70;13.13;;;28.60;95.80;;;;;;4146915;28;20042;-68
2022/05/06 02:26:59;;;;;;;15.55;13.10;;;28.60;95.60;;;;;;4147529;28;20065;-69
2022/05/06 02:29:06;;;;;;;15.60;12.70;;;28.70;95.50;;;;;;4147813;28;20164;-69
2022/05/06 02:33:36;;;;;;;16.63;12.82;;;28.80;95.40;;;;;;4152811;28;20044;-70
2022/05/06 02:35:57;;;;;;;18.58;12.27;;;28.90;95.20;;;;;;4152870;28;20073;-71
2022/05/06 02:38:10;;;;;;;15.65;11.88;;;29.10;94.90;;;;;;4147699;28;20061;-70
2022/05/06 02:40:16;;;;;;;14.45;11.73;;;29.30;94.80;;;;;;4151821;28;20808;-70
2022/05/06 02:42:21;;;;;;;17.63;12.48;;;29.40;94.70;;;;;;4167271;28;20182;-69
2022/05/06 02:44:29;;;;;;;15.52;11.77;;;29.50;94.60;;;;;;4150593;28;20049;-69
2022/05/06 02:46:35;;;;;;;16.33;12.48;;;29.60;94.50;;;;;;4150803;28;20105;-71
2022/05/06 02:48:41;;;;;;;14.95;12.20;;;29.60;94.40;;;;;;4153925;28;20056;-69
2022/05/06 02:50:49;;;;;;;15.05;11.35;;;29.60;94.40;;;;;;4152421;28;20034;-69
2022/05/06 02:52:55;;;;;;;19.40;12.55;;;29.60;94.30;;;;;;4166668;28;20053;-68
2022/05/06 02:55:00;;;;;;;17.92;12.07;;;29.70;94.30;;;;;;4150316;28;20061;-69
2022/05/06 02:57:11;;;;;;;16.10;13.02;;;29.80;94.10;;;;;;4165362;28;20547;-69
2022/05/06 02:59:18;;;;;;;16.23;12.60;;;29.80;93.80;;;;;;4150714;28;20105;-69
2022/05/06 03:01:25;;;;;;;16.70;13.35;;;29.90;93.70;;;;;;4152019;28;20046;-69
2022/05/06 03:03:36;;;;;;;14.68;12.00;;;30.10;93.60;;;;;;4152892;28;20456;-70
2022/05/06 03:05:50;;;;;;;13.98;12.10;;;30.20;93.40;;;;;;4151047;28;20038;-70
2022/05/06 03:07:57;;;;;;;13.32;11.27;;;30.30;93.70;;;;;;4150449;28;20037;-69
2022/05/06 03:10:07;;;;;;;13.75;11.18;;;30.40;93.60;;;;;;4150652;28;20477;-69
2022/05/06 03:12:16;;;;;;;13.00;11.27;;;30.50;93.50;;;;;;4151058;28;20054;-69
2022/05/06 03:14:30;;;;;;;16.70;12.35;;;30.50;93.40;;;;;;4150887;28;20050;-69
2022/05/06 03:16:56;;;;;;;15.63;11.73;;;30.50;93.40;;;;;;4151795;28;20065;-70
2022/05/06 03:19:01;;;;;;;15.93;11.43;;;30.60;93.10;;;;;;4152167;28;20061;-69
2022/05/06 03:21:07;;;;;;;14.95;11.13;;;30.60;93.00;;;;;;4151858;28;20064;-67
2022/05/06 03:23:16;;;;;;;13.50;11.63;;;30.60;93.10;;;;;;4115357;28;20058;-68
2022/05/06 03:25:21;;;;;;;15.48;11.00;;;30.60;93.20;;;;;;4151958;28;20069;-68
2022/05/06 03:29:49;;;;;;;15.00;11.30;;;30.50;93.20;;;;;;4153145;28;20097;-68
2022/05/06 03:31:57;;;;;;;15.27;11.70;;;30.60;93.20;;;;;;4168767;28;20100;-70
2022/05/06 03:34:03;;;;;;;14.57;10.88;;;30.50;93.50;;;;;;4151463;28;20046;-69
2022/05/06 03:36:16;;;;;;;15.40;11.48;;;30.60;93.60;;;;;;4152130;28;20129;-68
2022/05/06 03:38:30;;;;;;;13.40;10.38;;;30.60;93.70;;;;;;4165704;28;20522;-68
2022/05/06 03:40:35;;;;;;;13.88;10.13;;;30.70;93.50;;;;;;4150749;28;22198;-69
2022/05/06 03:42:47;;;;;;;13.15;10.52;;;30.70;93.50;;;;;;4152424;28;20033;-68
2022/05/06 03:44:53;;;;;;;13.30;10.63;;;30.80;93.40;;;;;;4149866;28;20045;-69
2022/05/06 03:47:00;;;;;;;13.68;10.05;;;30.80;93.10;;;;;;4152987;28;20048;-68
2022/05/06 03:49:13;;;;;;;13.13;10.23;;;30.80;93.10;;;;;;4136067;28;20042;-69
2022/05/06 03:51:21;;;;;;;12.32;9.98;;;30.80;93.00;;;;;;4151489;28;20045;-69
2022/05/06 03:53:43;;;;;;;13.63;10.68;;;30.80;93.00;;;;;;4150366;28;20049;-69
2022/05/06 03:55:53;;;;;;;14.00;10.25;;;30.80;93.40;;;;;;4153354;28;20493;-68
2022/05/06 03:58:01;;;;;;;12.30;10.15;;;30.80;93.20;;;;;;4152225;28;20096;-70
2022/05/06 04:00:09;;;;;;;13.20;10.43;;;30.70;93.30;;;;;;4136134;28;20066;-69
2022/05/06 04:02:26;;;;;;;12.63;10.60;;;30.80;93.20;;;;;;4152367;28;20089;-69
2022/05/06 04:04:31;;;;;;;13.13;10.60;;;30.90;93.20;;;;;;4153884;28;20061;-69
2022/05/06 04:06:42;;;;;;;11.70;10.50;;;30.90;93.00;;;;;;4171846;28;20515;-68
2022/05/06 04:08:52;;;;;;;13.18;10.20;;;30.90;93.00;;;;;;4153977;28;20056;-70
2022/05/06 04:10:59;;;;;;;12.68;10.45;;;30.90;93.00;;;;;;4162258;28;20109;-69
2022/05/06 04:13:07;;;;;;;16.20;12.60;;;31.00;93.00;;;;;;4152602;28;20107;-69
2022/05/06 04:15:18;;;;;;;18.23;11.60;;;30.90;93.00;;;;;;4153876;28;20046;-69
2022/05/06 04:17:25;;;;;;;18.85;12.07;;;30.80;93.10;;;;;;4146745;28;20077;-69
2022/05/06 04:19:30;;;;;;;19.98;13.05;;;30.80;93.70;;;;;;4150497;28;20100;-69
2022/05/06 04:24:03;;;;;;;20.85;12.98;;;31.00;93.20;;;;;;4152097;28;20111;-67
2022/05/06 04:26:13;;;;;;;16.23;11.90;;;31.00;93.00;;;;;;4169953;28;20581;-69
2022/05/06 04:28:31;;;;;;;16.60;11.98;;;31.00;93.10;;;;;;4120243;28;20178;-68
2022/05/06 04:30:38;;;;;;;17.33;12.27;;;31.10;93.10;;;;;;4152513;28;20405;-69
2022/05/06 04:32:47;;;;;;;15.45;12.50;;;31.10;93.20;;;;;;4166512;28;20115;-68
2022/05/06 04:34:56;;;;;;;14.55;11.68;;;31.30;92.80;;;;;;4152082;28;20050;-69
2022/05/06 04:37:01;;;;;;;21.90;13.48;;;31.40;92.80;;;;;;4155244;28;20053;-68
2022/05/06 04:39:08;;;;;;;17.40;13.10;;;31.40;92.60;;;;;;4150964;28;20100;-70
2022/05/06 04:41:24;;;;;;;20.25;12.70;;;31.50;92.40;;;;;;4154264;28;20520;-70
2022/05/06 04:43:32;;;;;;;16.17;12.57;;;31.60;92.50;;;;;;4153338;28;20428;-70
2022/05/06 04:45:40;;;;;;;16.90;12.63;;;31.50;92.80;;;;;;4153302;28;20053;-71
2022/05/06 04:47:47;;;;;;;14.23;12.70;;;31.50;92.20;;;;;;4168574;28;20050;-71
2022/05/06 04:49:53;;;;;;;14.40;12.23;;;31.50;92.50;;;;;;4150970;28;20049;-70
2022/05/06 04:52:00;;;;;;;16.80;12.45;;;31.50;92.50;;;;;;4149327;28;20073;-69
2022/05/06 04:54:11;;;;;;;19.95;13.35;;;31.50;92.60;;;;;;4148259;28;20097;-70
2022/05/06 04:56:18;;;;;;;18.42;13.93;;;31.50;92.60;;;;;;4155028;28;20129;-68
2022/05/06 04:58:24;;;;;;;18.15;14.00;;;31.50;92.50;;;;;;4153488;28;20046;-70
2022/05/06 05:00:42;;;;;;;18.50;13.63;;;31.40;92.50;;;;;;4151350;28;20077;-70
2022/05/06 05:02:47;;;;;;;21.15;14.65;;;31.40;92.80;;;;;;4152231;28;20395;-70
2022/05/06 05:04:56;;;;;;;20.85;15.20;;;31.40;92.60;;;;;;4159879;28;20052;-69
2022/05/06 05:07:10;;;;;;;19.30;14.70;;;31.40;92.80;;;;;;4167386;28;20045;-69
2022/05/06 05:09:23;;;;;;;18.52;14.48;;;31.30;92.80;;;;;;4153556;28;20042;-71
2022/05/06 05:11:29;;;;;;;18.33;14.70;;;31.30;93.00;;;;;;4150945;28;20046;-70
2022/05/06 05:13:43;;;;;;;;;;;31.30;92.90;;;;;;4150886;28;20041;-68
2022/05/06 05:15:57;;;;;;;16.40;14.45;;;31.30;92.70;;;;;;4152187;28;20024;-70
2022/05/06 05:18:04;;;;;;;16.58;13.93;;;31.40;92.70;;;;;;4152477;28;20061;-68
2022/05/06 05:20:13;;;;;;;17.95;13.80;;;31.50;92.60;;;;;;4151311;28;20060;-69
2022/05/06 05:22:20;;;;;;;14.90;13.15;;;31.70;92.50;;;;;;4166395;28;20044;-69
2022/05/06 05:24:27;;;;;;;14.57;12.93;;;31.80;92.30;;;;;;4151286;28;20046;-69
2022/05/06 05:26:38;;;;;;;18.65;13.32;;;31.70;92.10;;;;;;4150567;28;20041;-69
2022/05/06 05:28:43;;;;;;;16.55;13.45;;;31.80;92.10;;;;;;4150023;28;20045;-67
2022/05/06 05:30:48;;;;;;;14.90;13.05;;;31.80;92.20;;;;;;4151185;28;20050;-69
2022/05/06 05:32:54;;;;;;;15.80;12.90;;;32.00;92.10;;;;;;4153003;28;20073;-70
2022/05/06 05:35:00;;;;;;;16.13;13.50;;;32.10;91.90;;;;;;4149929;28;20050;-71
2022/05/06 05:37:09;;;;;;;16.35;14.10;;;32.10;91.60;;;;;;4146350;28;20049;-70
2022/05/06 05:39:16;;;;;;;16.88;12.55;;;32.10;91.80;;;;;;4165122;28;20045;-71
2022/05/06 05:41:26;;;;;;;14.18;12.43;;;32.20;91.90;;;;;;4144688;28;20452;-71
2022/05/06 05:48:21;;;;;;;18.55;12.77;;;32.50;91.40;;;;;;4149839;28;20133;-71
2022/05/06 05:50:45;;;;;;;15.82;11.98;;;32.60;91.30;;;;;;4146940;28;20050;-71
2022/05/06 05:52:53;;;;;;;14.15;12.52;;;32.80;91.20;;;;;;4150255;28;20045;-69
2022/05/06 05:55:02;;;;;;;17.58;12.98;;;32.80;91.30;;;;;;4150199;28;20044;-69
2022/05/06 05:57:08;;;;;;;15.10;11.95;;;32.90;91.30;;;;;;4167249;28;20064;-70
2022/05/06 05:59:15;;;;;;;14.93;12.05;;;32.90;91.30;;;;;;4132609;28;20050;-69
2022/05/06 06:01:22;;;;;;;14.65;12.30;;;33.00;91.30;;;;;;4149328;28;20030;-69
2022/05/06 06:03:31;;;;;;;15.80;12.35;;;33.10;91.20;;;;;;4166329;28;20046;-69
2022/05/06 06:05:40;;;;;;;14.35;12.32;;;33.10;90.90;;;;;;4148139;28;20525;-69
2022/05/06 06:07:46;;;;;;;14.80;12.70;;;33.10;91.00;;;;;;4150748;28;20050;-68
2022/05/06 06:09:54;;;;;;;19.17;12.40;;;33.10;90.80;;;;;;4150839;28;20057;-69
2022/05/06 06:12:01;;;;;;;15.75;12.07;;;33.10;90.90;;;;;;4148323;28;20045;-70
2022/05/06 06:14:10;;;;;;;14.05;11.65;;;33.10;90.90;;;;;;4166568;28;20041;-69
2022/05/06 06:16:19;;;;;;;14.43;11.30;;;33.30;90.80;;;;;;4149760;28;20677;-71
2022/05/06 06:18:29;;;;;;;13.65;11.68;;;33.30;90.60;;;;;;4115348;28;20051;-70
2022/05/06 06:20:37;;;;;;;13.57;12.18;;;33.40;90.30;;;;;;4149500;28;20045;-69
2022/05/06 06:22:42;;;;;;;15.75;12.20;;;33.40;90.20;;;;;;4148660;28;20074;-69
2022/05/06 06:24:50;;;;;;;13.05;11.30;;;33.40;90.30;;;;;;4149363;28;20050;-69
2022/05/06 06:26:58;;;;;;;17.65;12.15;;;33.60;90.20;;;;;;4151126;28;20038;-71
2022/05/06 06:29:05;;;;;;;15.00;11.57;;;33.60;90.20;;;;;;4148937;28;20042;-69
2022/05/06 06:31:14;;;;;;;13.88;11.32;;;33.60;89.10;;;;;;4116814;28;20054;-68
2022/05/06 06:33:23;;;;;;;15.75;11.48;;;33.50;89.60;;;;;;4146119;28;20046;-70
2022/05/06 06:35:29;;;;;;;14.98;11.02;;;33.50;89.40;;;;;;4148214;28;20046;-70
2022/05/06 06:37:38;;;;;;;15.18;11.27;;;33.60;89.70;;;;;;4147255;28;20037;-71
2022/05/06 06:39:43;;;;;;;13.35;10.82;;;33.80;89.30;;;;;;4165712;28;20041;-67
2022/05/06 06:41:50;;;;;;;14.13;11.02;;;33.90;89.10;;;;;;4151085;28;20045;-71
2022/05/06 06:44:12;;;;;;;13.57;11.65;;;34.00;88.90;;;;;;4164056;28;20041;-71
2022/05/06 06:46:32;;;;;;;14.43;11.27;;;34.10;88.70;;;;;;4149830;28;20096;-70
2022/05/06 06:48:49;;;;;;;13.27;11.63;;;34.10;88.50;;;;;;4150031;28;20034;-69
2022/05/06 06:51:03;;;;;;;14.75;11.60;;;34.00;88.80;;;;;;4151083;28;20096;-69
2022/05/06 06:53:15;;;;;;;13.80;11.65;;;33.90;89.10;;;;;;4149806;28;20063;-69
2022/05/06 06:55:20;;;;;;;14.77;11.57;;;33.80;89.10;;;;;;4149748;28;20046;-70
2022/05/06 06:57:26;;;;;;;13.50;10.95;;;33.70;89.40;;;;;;4149380;28;20073;-69
2022/05/06 06:59:36;;;;;;;13.75;11.02;;;33.80;89.20;;;;;;4146806;28;20053;-70
2022/05/06 07:01:41;;;;;;;14.27;11.25;;;33.90;89.20;;;;;;4146607;28;20044;-67
2022/05/06 07:03:47;;;;;;;12.77;10.63;;;33.90;89.20;;;;;;4132094;28;20049;-70
2022/05/06 07:13:12;;;;;;;107.78;16.40;;;33.70;89.30;;;;;;4145641;28;20042;-70
2022/05/06 07:15:16;;;;;;;47.20;12.73;;;33.50;90.10;;;;;;4145425;28;20046;-69
2022/05/06 07:17:23;;;;;;;37.67;12.65;;;33.50;90.00;;;;;;4132450;28;20541;-69
2022/05/06 07:19:30;;;;;;;17.40;12.00;;;33.40;90.20;;;;;;4133328;28;20419;-69
2022/05/06 07:21:38;;;;;;;20.42;12.02;;;33.30;90.30;;;;;;4151571;28;20044;-69
2022/05/06 07:23:43;;;;;;;19.92;11.65;;;33.30;90.50;;;;;;4151965;28;20065;-69
2022/05/06 07:25:48;;;;;;;15.88;12.35;;;33.20;90.50;;;;;;4150332;28;20038;-70
2022/05/06 07:27:53;;;;;;;14.55;11.48;;;33.20;90.30;;;;;;4150756;28;20060;-69
2022/05/06 07:30:00;;;;;;;14.38;11.02;;;33.10;90.40;;;;;;4149617;28;20108;-69
2022/05/06 07:32:08;;;;;;;15.52;11.75;;;33.20;90.30;;;;;;4151176;28;20089;-68
2022/05/06 07:34:15;;;;;;;17.63;12.48;;;33.20;90.20;;;;;;4154360;28;20132;-69
2022/05/06 07:36:23;;;;;;;12.40;11.10;;;33.20;90.50;;;;;;4155340;28;20046;-69
2022/05/06 07:38:33;;;;;;;15.45;11.43;;;33.20;90.40;;;;;;4153396;28;20124;-69
2022/05/06 07:40:41;;;;;;;13.57;11.60;;;33.10;90.20;;;;;;4152970;28;20050;-71
2022/05/06 07:42:50;;;;;;;16.13;11.38;;;33.10;90.30;;;;;;4152024;28;20049;-71
2022/05/06 07:44:56;;;;;;;15.63;12.40;;;33.00;90.20;;;;;;4152437;28;20512;-70
2022/05/06 07:47:00;;;;;;;15.73;12.48;;;32.90;90.50;;;;;;4151831;28;20042;-70
2022/05/06 07:49:06;;;;;;;14.60;11.77;;;32.80;90.50;;;;;;4153382;28;20038;-71
2022/05/06 07:51:13;;;;;;;16.85;13.02;;;32.70;90.70;;;;;;4154433;28;20065;-71
2022/05/06 07:53:19;;;;;;;14.88;12.50;;;32.60;90.90;;;;;;4153911;28;20508;-70
2022/05/06 07:55:26;;;;;;;15.52;13.07;;;32.70;90.90;;;;;;4154157;28;20069;-70
2022/05/06 07:57:31;;;;;;;15.18;12.15;;;32.40;91.10;;;;;;4152832;28;20084;-69
2022/05/06 07:59:36;;;;;;;14.73;12.48;;;32.40;91.00;;;;;;4155376;28;20041;-69
2022/05/06 08:06:19;;;;;;;16.63;12.75;;;32.40;91.00;;;;;;4154937;28;20185;-72
2022/05/06 08:08:27;;;;;;;16.42;12.60;;;32.30;91.40;;;;;;4170359;28;20037;-72
2022/05/06 08:10:34;;;;;;;16.65;12.68;;;32.30;91.80;;;;;;4153856;28;20046;-72
2022/05/06 08:12:39;;;;;;;17.45;12.90;;;32.30;92.30;;;;;;4153969;28;20061;-72
2022/05/06 08:14:46;;;;;;;15.90;13.80;;;32.30;92.20;;;;;;4135634;28;20128;-71
2022/05/06 08:16:53;;;;;;;17.08;14.95;;;32.30;92.70;;;;;;4153852;28;20099;-71
2022/05/06 08:18:59;;;;;;;20.45;17.13;;;32.30;94.50;;;;;;4153135;28;20042;-71
2022/05/06 08:21:04;;;;;;;22.58;17.00;;;32.10;95.20;;;;;;4154292;28;20034;-72
2022/05/06 08:23:12;;;;;;;21.30;18.25;;;32.00;95.60;;;;;;4154918;28;20061;-70
2022/05/06 08:25:17;;;;;;;20.50;17.85;;;31.80;97.50;;;;;;4153166;28;20042;-71
2022/05/06 08:27:42;;;;;;;20.75;17.00;;;31.80;96.80;;;;;;4151683;28;20068;-71
2022/05/06 08:29:49;;;;;;;;;;;31.80;96.30;;;;;;4152784;28;20485;-72
2022/05/06 08:31:56;;;;;;;18.38;16.30;;;31.80;96.40;;;;;;4153422;28;19932;-72
2022/05/06 08:34:08;;;;;;;20.63;16.35;;;31.80;96.40;;;;;;4153836;28;20049;-72
2022/05/06 08:36:15;;;;;;;21.85;17.77;;;31.80;96.60;;;;;;4152255;28;20069;-71
2022/05/06 08:38:21;;;;;;;24.00;18.67;;;31.80;96.60;;;;;;4153477;28;20141;-70
2022/05/06 08:40:28;;;;;;;21.85;17.77;;;31.80;96.70;;;;;;4151543;28;20152;-70
2022/05/06 08:42:36;;;;;;;23.08;18.23;;;31.80;96.50;;;;;;4152853;28;20038;-70
2022/05/06 08:51:39;;;;;;;23.23;16.83;;;32.10;97.10;;;;;;4153108;28;20038;-71
2022/05/06 08:53:50;;;;;;;19.15;16.10;;;31.80;97.00;;;;;;4153822;28;20564;-71
2022/05/06 08:55:58;;;;;;;21.33;16.30;;;31.90;96.90;;;;;;4151299;28;20060;-73
2022/05/06 08:58:02;;;;;;;18.65;15.45;;;31.80;96.90;;;;;;4153614;28;20057;-73
2022/05/06 09:00:10;;;;;;;21.90;15.85;;;31.80;96.70;;;;;;4153685;28;20066;-72
2022/05/06 09:02:18;;;;;;;18.25;15.68;;;31.80;96.80;;;;;;4153664;28;20050;-71
2022/05/06 09:04:24;;;;;;;18.75;16.75;;;31.80;96.80;;;;;;4151552;28;20064;-72
2022/05/06 09:06:31;;;;;;;19.38;17.10;;;31.80;96.40;;;;;;4153439;28;20106;-73
2022/05/06 09:08:41;;;;;;;23.83;16.63;;;31.80;96.70;;;;;;4152319;28;20061;-70
2022/05/06 09:11:00;;;;;;;23.88;16.20;;;31.80;97.00;;;;;;4153388;28;20105;-70
2022/05/06 09:13:07;;;;;;;17.75;15.90;;;31.70;97.10;;;;;;4151508;28;20052;-71
2022/05/06 09:17:32;;;;;;;20.70;17.02;;;31.60;96.50;;;;;;4154416;28;20085;-72
2022/05/06 09:19:41;;;;;;;19.35;17.10;;;31.50;96.20;;;;;;4152924;28;20074;-70
2022/05/06 09:22:13;;;;;;;21.67;16.52;;;31.50;96.50;;;;;;4152253;28;20058;-71
2022/05/06 09:24:21;;;;;;;21.30;16.33;;;31.50;96.10;;;;;;4154204;28;20132;-72
2022/05/06 09:26:27;;;;;;;23.08;17.48;;;31.60;95.90;;;;;;4136988;28;20050;-70
2022/05/06 09:28:35;;;;;;;22.70;17.33;;;31.50;95.70;;;;;;4156472;28;20060;-69
2022/05/06 09:30:40;;;;;;;54.00;38.55;;;31.60;95.60;;;;;;4154415;28;20582;-67
2022/05/06 09:32:46;;;;;;;48.08;33.15;;;31.50;95.50;;;;;;4151787;28;20101;-68
2022/05/06 09:35:13;;;;;;;38.20;28.05;;;31.60;95.40;;;;;;4153613;28;20045;-68
2022/05/06 09:37:40;;;;;;;36.22;26.45;;;31.60;95.40;;;;;;4150892;28;20049;-69
2022/05/06 09:39:48;;;;;;;27.90;21.73;;;31.50;95.70;;;;;;4150014;28;20050;-68
2022/05/06 09:42:02;;;;;;;26.52;21.45;;;31.50;95.30;;;;;;4149743;28;20046;-71
2022/05/06 09:44:06;;;;;;;;;;;31.50;95.20;;;;;;4152917;28;20050;-71
2022/05/06 09:46:20;;;;;;;24.90;18.92;;;31.60;95.00;;;;;;4150470;28;20288;-69
2022/05/06 09:48:25;;;;;;;22.45;17.90;;;31.60;95.10;;;;;;4146737;28;20045;-72
2022/05/06 09:50:38;;;;;;;33.63;27.77;;;31.60;95.00;;;;;;4147019;28;20042;-72
2022/05/06 09:52:44;;;;;;;35.15;27.92;;;31.60;95.00;;;;;;4161963;28;20405;-72
2022/05/06 09:54:50;;;;;;;37.20;28.65;;;31.50;95.30;;;;;;4143844;28;20053;-73
2022/05/06 09:56:56;;;;;;;48.28;32.33;;;31.50;94.90;;;;;;4143571;28;20042;-70
2022/05/06 09:59:03;;;;;;;40.85;29.42;;;31.50;95.00;;;;;;4142558;28;20085;-71
2022/05/06 10:01:09;;;;;;;24.55;18.52;;;31.60;95.10;;;;;;4143617;28;20125;-73
2022/05/06 10:03:15;;;;;;;24.88;17.70;;;31.50;95.20;;;;;;4147804;28;20042;-72
2022/05/06 10:05:21;;;;;;;30.45;21.20;;;31.40;95.60;;;;;;4117789;28;20058;-72
2022/05/06 10:07:28;;;;;;;29.30;20.02;;;31.40;95.50;;;;;;4145620;28;20050;-71
2022/05/06 10:09:50;;;;;;;27.52;21.33;;;31.40;95.40;;;;;;4141133;28;20049;-73
2022/05/06 10:11:55;;;;;;;25.55;19.25;;;31.30;95.10;;;;;;4142154;28;20042;-72
2022/05/06 10:14:03;;;;;;;23.67;17.40;;;31.40;95.00;;;;;;4144260;28;20580;-71
2022/05/06 10:16:08;;;;;;;23.92;16.70;;;31.30;94.90;;;;;;4143392;28;20062;-72
2022/05/06 10:18:32;;;;;;;22.13;15.88;;;31.40;94.60;;;;;;4148662;28;20732;-72
2022/05/06 10:20:53;;;;;;;21.75;16.60;;;31.50;94.70;;;;;;4145751;28;20053;-73
2022/05/06 10:23:06;;;;;;;19.83;15.25;;;31.50;94.70;;;;;;4153513;28;20041;-72
2022/05/06 10:25:54;;;;;;;21.23;17.02;;;31.40;95.00;;;;;;4154716;28;20041;-73
2022/05/06 10:33:10;;;;;;;19.70;15.30;;;31.50;94.50;;;;;;4145569;28;20510;-73
2022/05/06 10:35:15;;;;;;;18.92;15.48;;;31.40;94.40;;;;;;4141479;28;20123;-73
2022/05/06 10:37:23;;;;;;;19.35;15.63;;;31.40;94.60;;;;;;4145770;28;20050;-72
2022/05/06 10:39:36;;;;;;;20.75;15.57;;;31.40;94.60;;;;;;4156815;28;20077;-72
2022/05/06 10:42:15;;;;;;;22.53;16.57;;;31.40;94.60;;;;;;4148902;28;20069;-72
2022/05/06 10:44:41;;;;;;;22.58;16.30;;;31.40;94.70;;;;;;4144476;28;20068;-72
2022/05/06 10:46:46;;;;;;;22.70;16.70;;;31.40;94.80;;;;;;4145781;28;20042;-72
2022/05/06 10:48:51;;;;;;;20.13;15.88;;;31.40;94.70;;;;;;4154270;28;20046;-72
2022/05/06 10:51:22;;;;;;;21.25;16.10;;;31.40;94.60;;;;;;4153713;28;20053;-71
2022/05/06 10:53:35;;;;;;;19.30;15.93;;;31.40;94.60;;;;;;4156887;28;20108;-72
2022/05/06 10:55:40;;;;;;;21.60;16.23;;;31.40;94.70;;;;;;4155623;28;20062;-71
2022/05/06 10:57:49;;;;;;;19.63;17.02;;;31.40;94.90;;;;;;4156877;28;20115;-72
2022/05/06 11:00:01;;;;;;;22.08;17.92;;;31.40;95.60;;;;;;4156528;28;20038;-71
2022/05/06 11:02:11;;;;;;;23.13;19.20;;;31.30;95.70;;;;;;4156836;28;20054;-73
2022/05/06 11:04:20;;;;;;;23.77;17.75;;;31.30;95.60;;;;;;4152128;28;20046;-74
2022/05/06 11:06:26;;;;;;;22.70;16.98;;;31.30;95.50;;;;;;4153373;28;20042;-73
2022/05/06 11:08:33;;;;;;;22.02;16.85;;;31.30;95.40;;;;;;4149691;28;20056;-74
2022/05/06 11:10:43;;;;;;;18.70;16.20;;;31.20;95.40;;;;;;4149363;28;20077;-73
2022/05/06 11:13:08;;;;;;;19.27;15.73;;;31.20;95.40;;;;;;4148720;28;20599;-74
2022/05/06 11:15:17;;;;;;;26.02;16.63;;;31.20;95.70;;;;;;4144552;28;20056;-73
2022/05/06 11:17:27;;;;;;;23.23;16.38;;;31.10;95.60;;;;;;4148199;28;20112;-73
2022/05/06 11:19:33;;;;;;;22.70;17.10;;;31.10;95.70;;;;;;4139851;28;20068;-73
2022/05/06 11:21:38;;;;;;;26.70;17.38;;;31.10;95.90;;;;;;4149486;28;20045;-73
2022/05/06 11:23:44;;;;;;;22.15;17.10;;;31.10;96.00;;;;;;4144687;28;20066;-71
2022/05/06 11:25:50;;;;;;;20.80;16.73;;;31.10;96.40;;;;;;4152430;28;20042;-72
2022/05/06 11:27:56;;;;;;;22.65;17.30;;;31.00;96.60;;;;;;4149205;28;20038;-70
2022/05/06 11:30:02;;;;;;;24.60;17.98;;;31.00;96.60;;;;;;4147700;28;20061;-71
2022/05/06 11:32:12;;;;;;;26.17;17.58;;;31.00;96.70;;;;;;4145218;28;20039;-70
2022/05/06 11:34:17;;;;;;;25.08;17.52;;;31.00;96.80;;;;;;4145776;28;20046;-72
2022/05/06 11:36:25;;;;;;;27.55;17.15;;;31.00;96.80;;;;;;4149270;28;20042;-72